sensor_id;sensor_type;location;lat;lon;timestamp;temperature;humidity
7622;DHT22;3852;52.284;8.032;2022-11-20T00:01:25;-2.00;99.90
7622;DHT22;3852;52.284;8.032;2022-11-20T00:03:53;-1.90;99.90
7622;DHT22;3852;52.284;8.032;2022-11-20T00:06:20;-1.90;99.90
7622;DHT22;3852;52.284;8.032;2022-11-20T00:08:46;-2.10;99.90
7622;DHT22;3852;52.284;8.032;2022-11-20T00:11:18;-2.00;99.90
7622;DHT22;3852;52.284;8.032;2022-11-20T00:13:47;-2.00;99.90
7622;DHT22;3852;52.284;8.032;2022-11-20T00:16:15;-2.00;99.90
7622;DHT22;3852;52.284;8.032;2022-11-20T00:18:43;-2.10;99.90
7622;DHT22;3852;52.284;8.032;2022-11-20T00:21:15;-2.10;99.90
7622;DHT22;3852;52.284;8.032;2022-11-20T00:23:41;-2.20;99.90
7622;DHT22;3852;52.284;8.032;2022-11-20T00:26:10;-2.20;99.90
7622;DHT22;3852;52.284;8.032;2022-11-20T00:28:38;-2.10;99.90
7622;DHT22;3852;52.284;8.032;2022-11-20T00:31:07;-2.20;99.90
7622;DHT22;3852;52.284;8.032;2022-11-20T00:33:43;-2.30;99.90
7622;DHT22;3852;52.284;8.032;2022-11-20T00:36:11;-2.30;99.90
7622;DHT22;3852;52.284;8.032;2022-11-20T00:38:39;-2.30;99.90
7622;DHT22;3852;52.284;8.032;2022-11-20T00:41:07;-2.20;99.90
7622;DHT22;3852;52.284;8.032;2022-11-20T00:43:34;-2.10;99.90
7622;DHT22;3852;52.284;8.032;2022-11-20T00:46:08;-2.20;99.90
7622;DHT22;3852;52.284;8.032;2022-11-20T00:48:35;-2.20;99.90
7622;DHT22;3852;52.284;8.032;2022-11-20T00:51:01;-2.20;99.90
7622;DHT22;3852;52.284;8.032;2022-11-20T00:53:27;-2.20;99.90
7622;DHT22;3852;52.284;8.032;2022-11-20T00:55:59;-2.10;99.90
7622;DHT22;3852;52.284;8.032;2022-11-20T00:58:29;-2.20;99.90
7622;DHT22;3852;52.284;8.032;2022-11-20T01:01:11;-2.10;99.90
7622;DHT22;3852;52.284;8.032;2022-11-20T01:03:44;-2.20;99.90
7622;DHT22;3852;52.284;8.032;2022-11-20T01:08:41;-2.30;99.90
7622;DHT22;3852;52.284;8.032;2022-11-20T01:11:11;-2.30;99.90
7622;DHT22;3852;52.284;8.032;2022-11-20T01:13:40;-2.30;99.90
7622;DHT22;3852;52.284;8.032;2022-11-20T01:18:34;-2.40;99.90
7622;DHT22;3852;52.284;8.032;2022-11-20T01:21:05;-2.40;99.90
7622;DHT22;3852;52.284;8.032;2022-11-20T01:23:34;-2.40;99.90
7622;DHT22;3852;52.284;8.032;2022-11-20T01:26:04;-2.40;99.90
7622;DHT22;3852;52.284;8.032;2022-11-20T01:28:31;-2.40;99.90
7622;DHT22;3852;52.284;8.032;2022-11-20T01:30:57;-2.40;99.90
7622;DHT22;3852;52.284;8.032;2022-11-20T01:33:24;-2.40;99.90
7622;DHT22;3852;52.284;8.032;2022-11-20T01:35:50;-2.50;99.90
7622;DHT22;3852;52.284;8.032;2022-11-20T01:38:16;-2.40;99.90
7622;DHT22;3852;52.284;8.032;2022-11-20T01:40:43;-2.40;99.90
7622;DHT22;3852;52.284;8.032;2022-11-20T01:43:18;-2.40;99.90
7622;DHT22;3852;52.284;8.032;2022-11-20T01:51:39;-2.40;99.90
7622;DHT22;3852;52.284;8.032;2022-11-20T01:54:19;-2.30;99.90
7622;DHT22;3852;52.284;8.032;2022-11-20T01:56:51;-2.50;99.90
7622;DHT22;3852;52.284;8.032;2022-11-20T01:59:20;-2.50;99.90
7622;DHT22;3852;52.284;8.032;2022-11-20T02:01:47;-2.40;99.90
7622;DHT22;3852;52.284;8.032;2022-11-20T02:04:13;-2.40;99.90
7622;DHT22;3852;52.284;8.032;2022-11-20T02:06:56;-2.50;99.90
7622;DHT22;3852;52.284;8.032;2022-11-20T02:09:25;-2.50;99.90
7622;DHT22;3852;52.284;8.032;2022-11-20T02:11:52;-2.50;99.90
7622;DHT22;3852;52.284;8.032;2022-11-20T02:14:18;-2.50;99.90
7622;DHT22;3852;52.284;8.032;2022-11-20T02:16:47;-2.50;99.90
7622;DHT22;3852;52.284;8.032;2022-11-20T02:19:24;-2.60;99.90
7622;DHT22;3852;52.284;8.032;2022-11-20T02:24:24;-2.50;99.90
7622;DHT22;3852;52.284;8.032;2022-11-20T02:29:32;-2.60;99.90
7622;DHT22;3852;52.284;8.032;2022-11-20T02:32:02;-2.50;99.90
7622;DHT22;3852;52.284;8.032;2022-11-20T02:34:28;-2.60;99.90
7622;DHT22;3852;52.284;8.032;2022-11-20T02:36:55;-2.60;99.90
7622;DHT22;3852;52.284;8.032;2022-11-20T02:39:24;-2.40;99.90
7622;DHT22;3852;52.284;8.032;2022-11-20T02:41:55;-2.00;99.90
7622;DHT22;3852;52.284;8.032;2022-11-20T02:44:21;-2.20;99.90
7622;DHT22;3852;52.284;8.032;2022-11-20T02:46:47;-2.20;99.90
7622;DHT22;3852;52.284;8.032;2022-11-20T02:49:13;-2.10;99.90
7622;DHT22;3852;52.284;8.032;2022-11-20T02:51:39;-2.20;99.90
7622;DHT22;3852;52.284;8.032;2022-11-20T02:54:04;-2.20;99.90
7622;DHT22;3852;52.284;8.032;2022-11-20T02:56:30;-2.30;99.90
7622;DHT22;3852;52.284;8.032;2022-11-20T02:58:56;-2.30;99.90
7622;DHT22;3852;52.284;8.032;2022-11-20T03:01:22;-2.30;99.90
7622;DHT22;3852;52.284;8.032;2022-11-20T03:03:48;-2.30;99.90
7622;DHT22;3852;52.284;8.032;2022-11-20T03:06:15;-2.30;99.90
7622;DHT22;3852;52.284;8.032;2022-11-20T03:08:42;-2.30;99.90
7622;DHT22;3852;52.284;8.032;2022-11-20T03:11:09;-2.30;99.90
7622;DHT22;3852;52.284;8.032;2022-11-20T03:13:35;-2.40;99.90
7622;DHT22;3852;52.284;8.032;2022-11-20T03:16:16;-2.40;99.90
7622;DHT22;3852;52.284;8.032;2022-11-20T03:18:44;-2.40;99.90
7622;DHT22;3852;52.284;8.032;2022-11-20T03:21:12;-2.40;99.90
7622;DHT22;3852;52.284;8.032;2022-11-20T03:23:39;-2.40;99.90
7622;DHT22;3852;52.284;8.032;2022-11-20T03:26:13;-2.50;99.90
7622;DHT22;3852;52.284;8.032;2022-11-20T03:28:42;-2.60;99.90
7622;DHT22;3852;52.284;8.032;2022-11-20T03:31:13;-2.60;99.90
7622;DHT22;3852;52.284;8.032;2022-11-20T03:33:41;-2.60;99.90
7622;DHT22;3852;52.284;8.032;2022-11-20T03:36:12;-2.60;99.90
7622;DHT22;3852;52.284;8.032;2022-11-20T03:38:40;-2.70;99.90
7622;DHT22;3852;52.284;8.032;2022-11-20T03:41:16;-2.80;99.90
7622;DHT22;3852;52.284;8.032;2022-11-20T03:43:51;-2.70;99.90
7622;DHT22;3852;52.284;8.032;2022-11-20T03:46:21;-2.70;99.90
7622;DHT22;3852;52.284;8.032;2022-11-20T03:48:47;-2.80;99.90
7622;DHT22;3852;52.284;8.032;2022-11-20T03:51:19;-2.80;99.90
7622;DHT22;3852;52.284;8.032;2022-11-20T03:53:46;-2.70;99.90
7622;DHT22;3852;52.284;8.032;2022-11-20T03:56:15;-2.80;99.90
7622;DHT22;3852;52.284;8.032;2022-11-20T03:58:42;-2.70;99.90
7622;DHT22;3852;52.284;8.032;2022-11-20T04:01:12;-2.70;99.90
7622;DHT22;3852;52.284;8.032;2022-11-20T04:03:41;-2.70;99.90
7622;DHT22;3852;52.284;8.032;2022-11-20T04:06:10;-2.80;99.90
7622;DHT22;3852;52.284;8.032;2022-11-20T04:08:38;-2.80;99.90
7622;DHT22;3852;52.284;8.032;2022-11-20T04:11:22;-2.90;99.90
7622;DHT22;3852;52.284;8.032;2022-11-20T04:13:54;-2.90;99.90
7622;DHT22;3852;52.284;8.032;2022-11-20T04:16:22;-2.80;99.90
7622;DHT22;3852;52.284;8.032;2022-11-20T04:18:53;-2.90;99.90
7622;DHT22;3852;52.284;8.032;2022-11-20T04:21:20;-2.90;99.90
7622;DHT22;3852;52.284;8.032;2022-11-20T04:23:46;-2.80;99.90
7622;DHT22;3852;52.284;8.032;2022-11-20T04:26:12;-2.70;99.90
7622;DHT22;3852;52.284;8.032;2022-11-20T04:28:39;-2.80;99.90
7622;DHT22;3852;52.284;8.032;2022-11-20T04:31:16;-2.80;99.90
7622;DHT22;3852;52.284;8.032;2022-11-20T04:33:44;-2.80;99.90
7622;DHT22;3852;52.284;8.032;2022-11-20T04:36:19;-2.70;99.90
7622;DHT22;3852;52.284;8.032;2022-11-20T04:38:46;-2.70;99.90
7622;DHT22;3852;52.284;8.032;2022-11-20T04:41:18;-2.80;99.90
7622;DHT22;3852;52.284;8.032;2022-11-20T04:43:49;-2.80;99.90
7622;DHT22;3852;52.284;8.032;2022-11-20T04:46:17;-2.90;99.90
7622;DHT22;3852;52.284;8.032;2022-11-20T04:48:44;-2.90;99.90
7622;DHT22;3852;52.284;8.032;2022-11-20T04:51:10;-2.90;99.90
7622;DHT22;3852;52.284;8.032;2022-11-20T04:53:36;-2.80;99.90
7622;DHT22;3852;52.284;8.032;2022-11-20T04:56:07;-2.80;99.90
7622;DHT22;3852;52.284;8.032;2022-11-20T04:58:34;-2.90;99.90
7622;DHT22;3852;52.284;8.032;2022-11-20T05:01:05;-3.10;99.90
7622;DHT22;3852;52.284;8.032;2022-11-20T05:03:31;-3.10;99.90
7622;DHT22;3852;52.284;8.032;2022-11-20T05:06:00;-3.10;99.90
7622;DHT22;3852;52.284;8.032;2022-11-20T05:08:28;-3.00;99.90
7622;DHT22;3852;52.284;8.032;2022-11-20T05:13:28;-3.00;99.90
7622;DHT22;3852;52.284;8.032;2022-11-20T05:15:54;-3.00;99.90
7622;DHT22;3852;52.284;8.032;2022-11-20T05:18:20;-3.00;99.90
7622;DHT22;3852;52.284;8.032;2022-11-20T05:20:46;-3.10;99.90
7622;DHT22;3852;52.284;8.032;2022-11-20T05:23:12;-3.10;99.90
7622;DHT22;3852;52.284;8.032;2022-11-20T05:25:38;-3.20;99.90
7622;DHT22;3852;52.284;8.032;2022-11-20T05:28:03;-3.10;99.90
7622;DHT22;3852;52.284;8.032;2022-11-20T05:30:30;-3.10;99.90
7622;DHT22;3852;52.284;8.032;2022-11-20T05:32:56;-3.10;99.90
7622;DHT22;3852;52.284;8.032;2022-11-20T05:35:22;-3.00;99.90
7622;DHT22;3852;52.284;8.032;2022-11-20T05:37:47;-3.00;99.90
7622;DHT22;3852;52.284;8.032;2022-11-20T05:40:16;-3.00;99.90
7622;DHT22;3852;52.284;8.032;2022-11-20T05:42:42;-3.00;99.90
7622;DHT22;3852;52.284;8.032;2022-11-20T05:45:09;-3.10;99.90
7622;DHT22;3852;52.284;8.032;2022-11-20T05:47:35;-3.10;99.90
7622;DHT22;3852;52.284;8.032;2022-11-20T05:50:01;-3.00;99.90
7622;DHT22;3852;52.284;8.032;2022-11-20T05:52:30;-3.00;99.90
7622;DHT22;3852;52.284;8.032;2022-11-20T05:54:57;-3.00;99.90
7622;DHT22;3852;52.284;8.032;2022-11-20T05:57:23;-3.10;99.90
7622;DHT22;3852;52.284;8.032;2022-11-20T05:59:48;-3.00;99.90
7622;DHT22;3852;52.284;8.032;2022-11-20T06:02:14;-3.00;99.90
7622;DHT22;3852;52.284;8.032;2022-11-20T06:04:40;-3.00;99.90
7622;DHT22;3852;52.284;8.032;2022-11-20T06:07:08;-3.00;99.90
7622;DHT22;3852;52.284;8.032;2022-11-20T06:09:34;-3.10;99.90
7622;DHT22;3852;52.284;8.032;2022-11-20T06:12:00;-3.10;99.90
7622;DHT22;3852;52.284;8.032;2022-11-20T06:14:26;-3.00;99.90
7622;DHT22;3852;52.284;8.032;2022-11-20T06:16:51;-3.10;99.90
7622;DHT22;3852;52.284;8.032;2022-11-20T06:19:17;-2.90;99.90
7622;DHT22;3852;52.284;8.032;2022-11-20T06:21:43;-3.00;99.90
7622;DHT22;3852;52.284;8.032;2022-11-20T06:24:10;-3.10;99.90
7622;DHT22;3852;52.284;8.032;2022-11-20T06:26:36;-3.00;99.90
7622;DHT22;3852;52.284;8.032;2022-11-20T06:29:02;-2.90;99.90
7622;DHT22;3852;52.284;8.032;2022-11-20T06:31:28;-2.90;99.90
7622;DHT22;3852;52.284;8.032;2022-11-20T06:33:54;-2.90;99.90
7622;DHT22;3852;52.284;8.032;2022-11-20T06:36:22;-2.90;99.90
7622;DHT22;3852;52.284;8.032;2022-11-20T06:38:48;-2.80;99.90
7622;DHT22;3852;52.284;8.032;2022-11-20T06:41:17;-2.80;99.90
7622;DHT22;3852;52.284;8.032;2022-11-20T06:43:45;-2.80;99.90
7622;DHT22;3852;52.284;8.032;2022-11-20T06:46:12;-2.80;99.90
7622;DHT22;3852;52.284;8.032;2022-11-20T06:48:39;-2.80;99.90
7622;DHT22;3852;52.284;8.032;2022-11-20T06:51:07;-2.80;99.90
7622;DHT22;3852;52.284;8.032;2022-11-20T06:53:33;-2.80;99.90
7622;DHT22;3852;52.284;8.032;2022-11-20T06:56:00;-2.80;99.90
7622;DHT22;3852;52.284;8.032;2022-11-20T06:58:30;-2.70;99.90
7622;DHT22;3852;52.284;8.032;2022-11-20T07:01:02;-2.70;99.90
7622;DHT22;3852;52.284;8.032;2022-11-20T07:03:29;-2.70;99.90
7622;DHT22;3852;52.284;8.032;2022-11-20T07:05:56;-2.70;99.90
7622;DHT22;3852;52.284;8.032;2022-11-20T07:08:23;-2.70;99.90
7622;DHT22;3852;52.284;8.032;2022-11-20T07:10:49;-2.70;99.90
7622;DHT22;3852;52.284;8.032;2022-11-20T07:13:15;-2.70;99.90
7622;DHT22;3852;52.284;8.032;2022-11-20T07:15:41;-2.80;99.90
7622;DHT22;3852;52.284;8.032;2022-11-20T07:18:07;-2.70;99.90
7622;DHT22;3852;52.284;8.032;2022-11-20T07:20:33;-2.70;99.90
7622;DHT22;3852;52.284;8.032;2022-11-20T07:22:59;-2.70;99.90
7622;DHT22;3852;52.284;8.032;2022-11-20T07:25:26;-2.70;99.90
7622;DHT22;3852;52.284;8.032;2022-11-20T07:27:56;-2.80;99.90
7622;DHT22;3852;52.284;8.032;2022-11-20T07:30:31;-2.80;99.90
7622;DHT22;3852;52.284;8.032;2022-11-20T07:32:57;-2.60;99.90
7622;DHT22;3852;52.284;8.032;2022-11-20T07:35:26;-2.50;99.90
7622;DHT22;3852;52.284;8.032;2022-11-20T07:37:51;-2.50;99.90
7622;DHT22;3852;52.284;8.032;2022-11-20T07:40:18;-2.40;99.90
7622;DHT22;3852;52.284;8.032;2022-11-20T07:42:52;-2.50;99.90
7622;DHT22;3852;52.284;8.032;2022-11-20T07:45:20;-2.40;99.90
7622;DHT22;3852;52.284;8.032;2022-11-20T07:47:47;-2.40;99.90
7622;DHT22;3852;52.284;8.032;2022-11-20T07:50:13;-2.20;99.90
7622;DHT22;3852;52.284;8.032;2022-11-20T07:52:39;-2.20;99.90
7622;DHT22;3852;52.284;8.032;2022-11-20T07:55:06;-2.10;99.90
7622;DHT22;3852;52.284;8.032;2022-11-20T07:57:32;-2.10;99.90
7622;DHT22;3852;52.284;8.032;2022-11-20T07:59:58;-2.00;99.90
7622;DHT22;3852;52.284;8.032;2022-11-20T08:02:24;-1.80;99.90
7622;DHT22;3852;52.284;8.032;2022-11-20T08:04:50;-1.90;99.90
7622;DHT22;3852;52.284;8.032;2022-11-20T08:07:16;-1.90;99.90
7622;DHT22;3852;52.284;8.032;2022-11-20T08:09:42;-1.90;99.90
7622;DHT22;3852;52.284;8.032;2022-11-20T08:12:08;-1.80;99.90
7622;DHT22;3852;52.284;8.032;2022-11-20T08:14:53;-1.70;99.90
7622;DHT22;3852;52.284;8.032;2022-11-20T08:17:20;-1.70;99.90
7622;DHT22;3852;52.284;8.032;2022-11-20T08:19:46;-1.70;99.90
7622;DHT22;3852;52.284;8.032;2022-11-20T08:22:14;-1.50;99.90
7622;DHT22;3852;52.284;8.032;2022-11-20T08:24:41;-1.10;99.90
7622;DHT22;3852;52.284;8.032;2022-11-20T08:27:07;-0.80;99.90
7622;DHT22;3852;52.284;8.032;2022-11-20T08:29:32;-1.10;99.90
7622;DHT22;3852;52.284;8.032;2022-11-20T08:31:58;-1.20;99.90
7622;DHT22;3852;52.284;8.032;2022-11-20T08:34:24;-1.30;99.90
7622;DHT22;3852;52.284;8.032;2022-11-20T08:36:50;-1.20;99.90
7622;DHT22;3852;52.284;8.032;2022-11-20T08:39:16;-1.00;99.90
7622;DHT22;3852;52.284;8.032;2022-11-20T08:41:42;-1.10;99.90
7622;DHT22;3852;52.284;8.032;2022-11-20T08:44:08;-1.10;99.90
7622;DHT22;3852;52.284;8.032;2022-11-20T08:46:39;-1.10;99.90
7622;DHT22;3852;52.284;8.032;2022-11-20T08:49:11;-1.10;99.90
7622;DHT22;3852;52.284;8.032;2022-11-20T08:51:42;-1.10;99.90
7622;DHT22;3852;52.284;8.032;2022-11-20T08:54:08;-1.10;99.90
7622;DHT22;3852;52.284;8.032;2022-11-20T08:56:35;-1.00;99.90
7622;DHT22;3852;52.284;8.032;2022-11-20T08:59:01;-1.20;99.90
7622;DHT22;3852;52.284;8.032;2022-11-20T09:01:30;-1.20;99.90
7622;DHT22;3852;52.284;8.032;2022-11-20T09:03:56;-1.20;99.90
7622;DHT22;3852;52.284;8.032;2022-11-20T09:06:22;-1.20;99.90
7622;DHT22;3852;52.284;8.032;2022-11-20T09:08:54;-1.20;99.90
7622;DHT22;3852;52.284;8.032;2022-11-20T09:11:21;-1.20;99.90
7622;DHT22;3852;52.284;8.032;2022-11-20T09:13:47;-1.20;99.90
7622;DHT22;3852;52.284;8.032;2022-11-20T09:16:15;-1.00;99.90
7622;DHT22;3852;52.284;8.032;2022-11-20T09:18:41;-1.00;99.90
7622;DHT22;3852;52.284;8.032;2022-11-20T09:21:10;-1.00;99.90
7622;DHT22;3852;52.284;8.032;2022-11-20T09:23:38;-1.00;99.90
7622;DHT22;3852;52.284;8.032;2022-11-20T09:26:06;-0.90;99.90
7622;DHT22;3852;52.284;8.032;2022-11-20T09:28:34;-0.90;99.90
7622;DHT22;3852;52.284;8.032;2022-11-20T09:31:00;-0.90;99.90
7622;DHT22;3852;52.284;8.032;2022-11-20T09:33:26;-0.90;99.90
7622;DHT22;3852;52.284;8.032;2022-11-20T09:35:52;-0.80;99.90
7622;DHT22;3852;52.284;8.032;2022-11-20T09:38:18;-0.80;99.90
7622;DHT22;3852;52.284;8.032;2022-11-20T09:40:50;-0.70;99.90
7622;DHT22;3852;52.284;8.032;2022-11-20T09:46:52;-0.60;99.90
7622;DHT22;3852;52.284;8.032;2022-11-20T09:54:44;-0.70;99.90
7622;DHT22;3852;52.284;8.032;2022-11-20T09:57:10;-0.60;99.90
7622;DHT22;3852;52.284;8.032;2022-11-20T10:00:05;-0.60;99.90
7622;DHT22;3852;52.284;8.032;2022-11-20T10:11:06;-0.30;99.90
7622;DHT22;3852;52.284;8.032;2022-11-20T10:31:40;-0.20;99.90
7622;DHT22;3852;52.284;8.032;2022-11-20T10:37:06;-0.10;99.90
7622;DHT22;3852;52.284;8.032;2022-11-20T10:40:25;-0.10;99.90
7622;DHT22;3852;52.284;8.032;2022-11-20T10:42:47;0.20;99.90
7622;DHT22;3852;52.284;8.032;2022-11-20T10:45:36;0.40;99.90
7622;DHT22;3852;52.284;8.032;2022-11-20T10:48:20;0.40;99.90
7622;DHT22;3852;52.284;8.032;2022-11-20T10:53:35;0.40;99.90
7622;DHT22;3852;52.284;8.032;2022-11-20T10:59:11;0.60;99.90
7622;DHT22;3852;52.284;8.032;2022-11-20T11:01:51;0.70;99.90
7622;DHT22;3852;52.284;8.032;2022-11-20T11:06:49;1.30;99.90
7622;DHT22;3852;52.284;8.032;2022-11-20T11:09:21;1.10;99.90
7622;DHT22;3852;52.284;8.032;2022-11-20T11:11:53;0.90;99.90
7622;DHT22;3852;52.284;8.032;2022-11-20T11:14:19;0.80;99.90
7622;DHT22;3852;52.284;8.032;2022-11-20T11:16:56;1.00;99.90
7622;DHT22;3852;52.284;8.032;2022-11-20T11:19:23;1.10;99.90
7622;DHT22;3852;52.284;8.032;2022-11-20T11:21:55;1.20;99.90
7622;DHT22;3852;52.284;8.032;2022-11-20T11:24:27;1.30;99.90
7622;DHT22;3852;52.284;8.032;2022-11-20T11:27:00;1.40;99.90
7622;DHT22;3852;52.284;8.032;2022-11-20T11:29:32;1.30;99.90
7622;DHT22;3852;52.284;8.032;2022-11-20T11:32:13;1.40;99.90
7622;DHT22;3852;52.284;8.032;2022-11-20T11:34:39;1.30;99.90
7622;DHT22;3852;52.284;8.032;2022-11-20T11:37:13;1.20;99.90
7622;DHT22;3852;52.284;8.032;2022-11-20T11:39:43;1.20;99.90
7622;DHT22;3852;52.284;8.032;2022-11-20T11:42:17;1.30;99.90
7622;DHT22;3852;52.284;8.032;2022-11-20T11:44:46;1.50;99.90
7622;DHT22;3852;52.284;8.032;2022-11-20T11:47:33;1.70;99.90
7622;DHT22;3852;52.284;8.032;2022-11-20T12:01:37;1.70;99.90
7622;DHT22;3852;52.284;8.032;2022-11-20T12:04:42;1.70;99.90
7622;DHT22;3852;52.284;8.032;2022-11-20T12:07:25;1.70;99.90
7622;DHT22;3852;52.284;8.032;2022-11-20T12:10:02;1.70;99.90
7622;DHT22;3852;52.284;8.032;2022-11-20T12:12:39;1.80;99.90
7622;DHT22;3852;52.284;8.032;2022-11-20T12:15:13;1.80;99.90
7622;DHT22;3852;52.284;8.032;2022-11-20T12:17:45;1.90;99.90
7622;DHT22;3852;52.284;8.032;2022-11-20T12:20:20;1.80;99.90
7622;DHT22;3852;52.284;8.032;2022-11-20T12:22:59;1.80;99.90
7622;DHT22;3852;52.284;8.032;2022-11-20T12:25:33;1.70;99.90
7622;DHT22;3852;52.284;8.032;2022-11-20T12:34:07;2.20;99.90
7622;DHT22;3852;52.284;8.032;2022-11-20T12:37:00;2.10;99.90
7622;DHT22;3852;52.284;8.032;2022-11-20T12:39:34;2.00;99.90
7622;DHT22;3852;52.284;8.032;2022-11-20T12:51:21;2.00;99.90
7622;DHT22;3852;52.284;8.032;2022-11-20T12:54:31;1.90;99.90
7622;DHT22;3852;52.284;8.032;2022-11-20T13:06:05;2.00;99.90
7622;DHT22;3852;52.284;8.032;2022-11-20T13:08:55;2.20;99.90
7622;DHT22;3852;52.284;8.032;2022-11-20T13:20:02;2.40;99.90
7622;DHT22;3852;52.284;8.032;2022-11-20T13:25:29;2.50;99.90
7622;DHT22;3852;52.284;8.032;2022-11-20T13:27:58;2.30;99.90
7622;DHT22;3852;52.284;8.032;2022-11-20T13:30:26;2.20;99.90
7622;DHT22;3852;52.284;8.032;2022-11-20T13:32:55;2.10;99.90
7622;DHT22;3852;52.284;8.032;2022-11-20T13:35:37;2.00;99.90
7622;DHT22;3852;52.284;8.032;2022-11-20T13:38:13;2.00;99.90
7622;DHT22;3852;52.284;8.032;2022-11-20T13:41:00;2.00;99.90
7622;DHT22;3852;52.284;8.032;2022-11-20T13:43:49;1.90;99.90
7622;DHT22;3852;52.284;8.032;2022-11-20T13:46:15;1.80;99.90
7622;DHT22;3852;52.284;8.032;2022-11-20T13:48:43;1.90;99.90
7622;DHT22;3852;52.284;8.032;2022-11-20T13:54:04;2.10;99.90
7622;DHT22;3852;52.284;8.032;2022-11-20T14:00:20;2.10;99.90
7622;DHT22;3852;52.284;8.032;2022-11-20T14:05:46;2.20;99.90
7622;DHT22;3852;52.284;8.032;2022-11-20T14:08:57;2.30;99.90
7622;DHT22;3852;52.284;8.032;2022-11-20T14:11:27;2.30;99.90
7622;DHT22;3852;52.284;8.032;2022-11-20T14:14:00;2.20;99.90
7622;DHT22;3852;52.284;8.032;2022-11-20T14:16:30;2.20;99.90
7622;DHT22;3852;52.284;8.032;2022-11-20T14:21:51;2.30;99.90
7622;DHT22;3852;52.284;8.032;2022-11-20T14:24:32;2.20;99.90
7622;DHT22;3852;52.284;8.032;2022-11-20T14:27:01;2.20;99.90
7622;DHT22;3852;52.284;8.032;2022-11-20T14:29:32;2.30;99.90
7622;DHT22;3852;52.284;8.032;2022-11-20T14:32:03;2.30;99.90
7622;DHT22;3852;52.284;8.032;2022-11-20T14:34:31;2.30;99.90
7622;DHT22;3852;52.284;8.032;2022-11-20T14:37:05;2.20;99.90
7622;DHT22;3852;52.284;8.032;2022-11-20T14:39:36;2.20;99.90
7622;DHT22;3852;52.284;8.032;2022-11-20T14:42:16;2.10;99.90
7622;DHT22;3852;52.284;8.032;2022-11-20T14:44:44;2.10;99.90
7622;DHT22;3852;52.284;8.032;2022-11-20T14:47:18;2.10;99.90
7622;DHT22;3852;52.284;8.032;2022-11-20T14:49:45;2.10;99.90
7622;DHT22;3852;52.284;8.032;2022-11-20T14:52:21;2.20;99.90
7622;DHT22;3852;52.284;8.032;2022-11-20T14:54:53;2.30;99.90
7622;DHT22;3852;52.284;8.032;2022-11-20T14:57:27;2.30;99.90
7622;DHT22;3852;52.284;8.032;2022-11-20T15:00:26;2.30;99.90
7622;DHT22;3852;52.284;8.032;2022-11-20T15:02:52;2.30;99.90
7622;DHT22;3852;52.284;8.032;2022-11-20T15:05:24;2.50;99.90
7622;DHT22;3852;52.284;8.032;2022-11-20T15:08:08;2.70;99.90
7622;DHT22;3852;52.284;8.032;2022-11-20T15:10:34;2.60;99.90
7622;DHT22;3852;52.284;8.032;2022-11-20T15:13:13;2.60;99.90
7622;DHT22;3852;52.284;8.032;2022-11-20T15:15:49;2.80;99.90
7622;DHT22;3852;52.284;8.032;2022-11-20T15:18:31;3.00;99.90
7622;DHT22;3852;52.284;8.032;2022-11-20T15:21:10;2.80;99.90
7622;DHT22;3852;52.284;8.032;2022-11-20T15:23:37;2.80;99.90
7622;DHT22;3852;52.284;8.032;2022-11-20T15:26:07;2.60;99.90
7622;DHT22;3852;52.284;8.032;2022-11-20T15:28:43;2.50;99.90
7622;DHT22;3852;52.284;8.032;2022-11-20T15:31:12;2.50;99.90
7622;DHT22;3852;52.284;8.032;2022-11-20T15:33:38;2.40;99.90
7622;DHT22;3852;52.284;8.032;2022-11-20T15:36:04;2.40;99.90
7622;DHT22;3852;52.284;8.032;2022-11-20T15:38:30;2.60;99.90
7622;DHT22;3852;52.284;8.032;2022-11-20T15:40:56;2.60;99.90
7622;DHT22;3852;52.284;8.032;2022-11-20T15:43:22;2.90;99.90
7622;DHT22;3852;52.284;8.032;2022-11-20T15:46:03;3.20;99.90
7622;DHT22;3852;52.284;8.032;2022-11-20T15:48:42;3.20;99.90
7622;DHT22;3852;52.284;8.032;2022-11-20T15:53:39;3.00;99.90
7622;DHT22;3852;52.284;8.032;2022-11-20T15:56:08;3.00;99.90
7622;DHT22;3852;52.284;8.032;2022-11-20T15:58:37;2.90;99.90
7622;DHT22;3852;52.284;8.032;2022-11-20T16:01:03;2.80;99.90
7622;DHT22;3852;52.284;8.032;2022-11-20T16:03:33;2.80;99.90
7622;DHT22;3852;52.284;8.032;2022-11-20T16:05:59;3.00;99.90
7622;DHT22;3852;52.284;8.032;2022-11-20T16:08:25;3.10;99.90
7622;DHT22;3852;52.284;8.032;2022-11-20T16:10:51;3.00;99.90
7622;DHT22;3852;52.284;8.032;2022-11-20T16:13:17;3.20;99.90
7622;DHT22;3852;52.284;8.032;2022-11-20T16:16:05;3.20;99.90
7622;DHT22;3852;52.284;8.032;2022-11-20T16:18:34;3.10;99.90
7622;DHT22;3852;52.284;8.032;2022-11-20T16:21:00;3.10;99.90
7622;DHT22;3852;52.284;8.032;2022-11-20T16:23:26;3.00;99.90
7622;DHT22;3852;52.284;8.032;2022-11-20T16:25:52;3.10;99.90
7622;DHT22;3852;52.284;8.032;2022-11-20T16:28:18;3.40;99.90
7622;DHT22;3852;52.284;8.032;2022-11-20T16:30:45;3.10;99.90
7622;DHT22;3852;52.284;8.032;2022-11-20T16:33:15;2.90;99.90
7622;DHT22;3852;52.284;8.032;2022-11-20T16:35:45;2.80;99.90
7622;DHT22;3852;52.284;8.032;2022-11-20T16:38:11;2.80;99.90
7622;DHT22;3852;52.284;8.032;2022-11-20T16:40:36;2.90;99.90
7622;DHT22;3852;52.284;8.032;2022-11-20T16:43:10;2.90;99.90
7622;DHT22;3852;52.284;8.032;2022-11-20T16:45:44;3.20;99.90
7622;DHT22;3852;52.284;8.032;2022-11-20T16:48:15;3.10;99.90
7622;DHT22;3852;52.284;8.032;2022-11-20T16:50:50;3.20;99.90
7622;DHT22;3852;52.284;8.032;2022-11-20T16:53:18;3.40;99.90
7622;DHT22;3852;52.284;8.032;2022-11-20T16:55:45;3.50;99.90
7622;DHT22;3852;52.284;8.032;2022-11-20T16:58:11;3.40;99.90
7622;DHT22;3852;52.284;8.032;2022-11-20T17:00:38;3.40;99.90
7622;DHT22;3852;52.284;8.032;2022-11-20T17:03:05;3.30;99.90
7622;DHT22;3852;52.284;8.032;2022-11-20T17:05:32;3.30;99.90
7622;DHT22;3852;52.284;8.032;2022-11-20T17:07:59;3.10;99.90
7622;DHT22;3852;52.284;8.032;2022-11-20T17:10:25;3.10;99.90
7622;DHT22;3852;52.284;8.032;2022-11-20T17:12:51;3.00;99.90
7622;DHT22;3852;52.284;8.032;2022-11-20T17:15:17;3.20;99.90
7622;DHT22;3852;52.284;8.032;2022-11-20T17:17:43;3.30;99.90
7622;DHT22;3852;52.284;8.032;2022-11-20T17:20:09;3.20;99.90
7622;DHT22;3852;52.284;8.032;2022-11-20T17:22:37;3.20;99.90
7622;DHT22;3852;52.284;8.032;2022-11-20T17:25:03;3.30;99.90
7622;DHT22;3852;52.284;8.032;2022-11-20T17:27:29;3.30;99.90
7622;DHT22;3852;52.284;8.032;2022-11-20T17:29:55;3.20;99.90
7622;DHT22;3852;52.284;8.032;2022-11-20T17:32:23;3.20;99.90
7622;DHT22;3852;52.284;8.032;2022-11-20T17:34:49;3.10;99.90
7622;DHT22;3852;52.284;8.032;2022-11-20T17:37:14;3.00;99.90
7622;DHT22;3852;52.284;8.032;2022-11-20T17:39:40;2.90;99.90
7622;DHT22;3852;52.284;8.032;2022-11-20T17:42:06;2.90;99.90
7622;DHT22;3852;52.284;8.032;2022-11-20T17:44:50;3.10;99.90
7622;DHT22;3852;52.284;8.032;2022-11-20T17:47:16;3.10;99.90
7622;DHT22;3852;52.284;8.032;2022-11-20T17:49:42;3.00;99.90
7622;DHT22;3852;52.284;8.032;2022-11-20T17:52:07;3.10;99.90
7622;DHT22;3852;52.284;8.032;2022-11-20T17:54:33;3.10;99.90
7622;DHT22;3852;52.284;8.032;2022-11-20T17:56:59;3.20;99.90
7622;DHT22;3852;52.284;8.032;2022-11-20T17:59:43;3.30;99.90
7622;DHT22;3852;52.284;8.032;2022-11-20T18:02:09;3.20;99.90
7622;DHT22;3852;52.284;8.032;2022-11-20T18:04:35;3.20;99.90
7622;DHT22;3852;52.284;8.032;2022-11-20T18:07:01;3.20;99.90
7622;DHT22;3852;52.284;8.032;2022-11-20T18:09:27;3.30;99.90
7622;DHT22;3852;52.284;8.032;2022-11-20T18:11:53;3.40;99.90
7622;DHT22;3852;52.284;8.032;2022-11-20T18:14:19;3.20;99.90
7622;DHT22;3852;52.284;8.032;2022-11-20T18:16:59;3.20;99.90
7622;DHT22;3852;52.284;8.032;2022-11-20T18:19:29;3.40;99.90
7622;DHT22;3852;52.284;8.032;2022-11-20T18:21:57;3.30;99.90
7622;DHT22;3852;52.284;8.032;2022-11-20T18:24:24;3.40;99.90
7622;DHT22;3852;52.284;8.032;2022-11-20T18:26:50;3.40;99.90
7622;DHT22;3852;52.284;8.032;2022-11-20T18:29:16;3.50;99.90
7622;DHT22;3852;52.284;8.032;2022-11-20T18:31:42;3.50;99.90